Tres Ritos, New Mexico
Current Conditions -  °F | °C
As of 1:55 PM on Thursday 27 Nov 2014 (Local Time) from KSKX Reporting Station
Clear Clear  
Wind Chill: 54°   Ceiling: Unl
Heat Index: 54°   Visibility: 10mi
Dew Point: 21°   Wind: 0mph
Humidity: 28%   Direction: NA
Pressure: 30.39"   Gusts: NA
Location:  36.1892°N, 105.688°W
Report Text: KSKX 272055Z AUTO 00000KT 10SM CLR 12/M06 A3039 RMK AO1 57030
Loading
Personal Weather Stations






























Interactive Weather Map New forecast layout! Learn more

10-Day Weather Forecast

Advertisements
Track Severe Weather on mobile